sensor_id;sensor_type;location;lat;lon;timestamp;P1;durP1;ratioP1;P2;durP2;ratioP2
56457;SDS011;42360;42.918;12.366;2023-03-01T14:05:13;1.30;;;1.20;;
56457;SDS011;42360;42.918;12.366;2023-03-01T14:07:38;1.92;;;1.83;;
56457;SDS011;42360;42.918;12.366;2023-03-01T14:10:06;1.67;;;1.52;;
56457;SDS011;42360;42.918;12.366;2023-03-01T14:12:37;1.48;;;1.38;;
56457;SDS011;42360;42.918;12.366;2023-03-01T14:15:15;1.77;;;1.60;;
56457;SDS011;42360;42.918;12.366;2023-03-01T14:17:49;9.40;;;5.90;;
56457;SDS011;42360;42.918;12.366;2023-03-01T14:20:30;27.63;;;13.98;;
56457;SDS011;42360;42.918;12.366;2023-03-01T14:23:01;23.35;;;11.68;;
56457;SDS011;42360;42.918;12.366;2023-03-01T14:25:36;26.02;;;11.35;;
56457;SDS011;42360;42.918;12.366;2023-03-01T14:28:04;23.43;;;10.20;;
56457;SDS011;42360;42.918;12.366;2023-03-01T14:36:14;4.57;;;3.38;;
56457;SDS011;42360;42.918;12.366;2023-03-01T14:38:44;6.82;;;4.90;;
56457;SDS011;42360;42.918;12.366;2023-03-01T14:41:12;2.07;;;1.87;;
56457;SDS011;42360;42.918;12.366;2023-03-01T14:43:46;2.30;;;2.20;;
56457;SDS011;42360;42.918;12.366;2023-03-01T14:46:26;2.10;;;2.00;;
56457;SDS011;42360;42.918;12.366;2023-03-01T14:49:03;1.75;;;1.50;;
56457;SDS011;42360;42.918;12.366;2023-03-01T14:51:39;2.25;;;2.08;;
56457;SDS011;42360;42.918;12.366;2023-03-01T14:54:18;2.03;;;1.83;;
56457;SDS011;42360;42.918;12.366;2023-03-01T14:56:47;2.90;;;2.70;;
56457;SDS011;42360;42.918;12.366;2023-03-01T14:59:12;1.92;;;1.83;;
56457;SDS011;42360;42.918;12.366;2023-03-01T15:01:39;1.52;;;1.42;;
56457;SDS011;42360;42.918;12.366;2023-03-01T15:04:06;4.40;;;2.90;;
56457;SDS011;42360;42.918;12.366;2023-03-01T15:06:36;3.95;;;3.05;;
56457;SDS011;42360;42.918;12.366;2023-03-01T15:09:02;4.72;;;2.80;;
56457;SDS011;42360;42.918;12.366;2023-03-01T15:11:29;2.05;;;1.70;;
56457;SDS011;42360;42.918;12.366;2023-03-01T15:13:56;3.08;;;2.50;;
56457;SDS011;42360;42.918;12.366;2023-03-01T15:16:32;2.28;;;1.77;;
56457;SDS011;42360;42.918;12.366;2023-03-01T15:18:59;3.75;;;3.30;;
56457;SDS011;42360;42.918;12.366;2023-03-01T15:23:57;3.45;;;3.15;;
56457;SDS011;42360;42.918;12.366;2023-03-01T15:26:32;5.00;;;3.70;;
56457;SDS011;42360;42.918;12.366;2023-03-01T15:31:35;10.82;;;8.40;;
56457;SDS011;42360;42.918;12.366;2023-03-01T15:34:22;12.77;;;9.20;;
56457;SDS011;42360;42.918;12.366;2023-03-01T15:36:50;12.88;;;7.47;;
56457;SDS011;42360;42.918;12.366;2023-03-01T15:42:02;6.00;;;4.32;;
56457;SDS011;42360;42.918;12.366;2023-03-01T15:44:33;3.60;;;2.88;;
56457;SDS011;42360;42.918;12.366;2023-03-01T15:47:01;21.70;;;13.75;;
56457;SDS011;42360;42.918;12.366;2023-03-01T15:49:33;13.20;;;8.43;;
56457;SDS011;42360;42.918;12.366;2023-03-01T15:52:40;21.30;;;13.25;;
56457;SDS011;42360;42.918;12.366;2023-03-01T15:55:05;24.92;;;16.60;;
56457;SDS011;42360;42.918;12.366;2023-03-01T15:57:32;13.88;;;10.57;;
56457;SDS011;42360;42.918;12.366;2023-03-01T15:59:57;4.55;;;4.15;;
56457;SDS011;42360;42.918;12.366;2023-03-01T16:02:23;4.03;;;3.63;;
56457;SDS011;42360;42.918;12.366;2023-03-01T16:04:49;5.45;;;4.88;;
56457;SDS011;42360;42.918;12.366;2023-03-01T16:07:15;4.25;;;3.20;;
56457;SDS011;42360;42.918;12.366;2023-03-01T16:09:41;2.25;;;2.15;;
56457;SDS011;42360;42.918;12.366;2023-03-01T16:12:11;2.65;;;2.45;;
56457;SDS011;42360;42.918;12.366;2023-03-01T16:14:39;1.40;;;1.30;;
56457;SDS011;42360;42.918;12.366;2023-03-01T16:17:05;1.70;;;1.60;;
56457;SDS011;42360;42.918;12.366;2023-03-01T16:19:30;1.10;;;1.02;;
56457;SDS011;42360;42.918;12.366;2023-03-01T16:21:56;1.95;;;1.23;;
56457;SDS011;42360;42.918;12.366;2023-03-01T16:24:21;1.45;;;1.35;;
56457;SDS011;42360;42.918;12.366;2023-03-01T16:26:47;1.42;;;1.33;;
56457;SDS011;42360;42.918;12.366;2023-03-01T16:29:12;0.90;;;0.90;;
56457;SDS011;42360;42.918;12.366;2023-03-01T16:31:38;1.10;;;1.00;;
56457;SDS011;42360;42.918;12.366;2023-03-01T16:34:03;1.25;;;0.90;;
56457;SDS011;42360;42.918;12.366;2023-03-01T16:36:30;1.17;;;1.08;;
56457;SDS011;42360;42.918;12.366;2023-03-01T16:38:59;8.40;;;5.43;;
56457;SDS011;42360;42.918;12.366;2023-03-01T16:41:26;8.55;;;4.47;;
56457;SDS011;42360;42.918;12.366;2023-03-01T16:43:52;5.40;;;3.70;;
56457;SDS011;42360;42.918;12.366;2023-03-01T16:46:19;4.13;;;2.47;;
56457;SDS011;42360;42.918;12.366;2023-03-01T16:48:47;3.95;;;2.50;;
56457;SDS011;42360;42.918;12.366;2023-03-01T16:51:13;2.28;;;2.08;;
56457;SDS011;42360;42.918;12.366;2023-03-01T16:53:38;3.92;;;2.80;;
56457;SDS011;42360;42.918;12.366;2023-03-01T16:56:05;6.20;;;3.78;;
56457;SDS011;42360;42.918;12.366;2023-03-01T16:58:31;3.97;;;2.33;;
56457;SDS011;42360;42.918;12.366;2023-03-01T17:01:02;4.35;;;2.00;;
56457;SDS011;42360;42.918;12.366;2023-03-01T17:03:29;1.70;;;1.60;;
56457;SDS011;42360;42.918;12.366;2023-03-01T17:05:55;2.70;;;2.03;;
56457;SDS011;42360;42.918;12.366;2023-03-01T17:08:20;2.53;;;1.92;;
56457;SDS011;42360;42.918;12.366;2023-03-01T17:10:46;2.38;;;2.17;;
56457;SDS011;42360;42.918;12.366;2023-03-01T17:13:11;4.43;;;3.15;;
56457;SDS011;42360;42.918;12.366;2023-03-01T17:15:40;4.57;;;3.85;;
56457;SDS011;42360;42.918;12.366;2023-03-01T17:18:06;8.02;;;4.80;;
56457;SDS011;42360;42.918;12.366;2023-03-01T17:20:32;6.70;;;4.78;;
56457;SDS011;42360;42.918;12.366;2023-03-01T17:22:58;7.40;;;5.03;;
56457;SDS011;42360;42.918;12.366;2023-03-01T17:25:24;5.65;;;4.00;;
56457;SDS011;42360;42.918;12.366;2023-03-01T17:27:49;4.22;;;3.50;;
56457;SDS011;42360;42.918;12.366;2023-03-01T17:30:15;3.60;;;2.95;;
56457;SDS011;42360;42.918;12.366;2023-03-01T17:32:40;3.75;;;3.13;;
56457;SDS011;42360;42.918;12.366;2023-03-01T17:35:06;5.63;;;2.58;;
56457;SDS011;42360;42.918;12.366;2023-03-01T17:37:33;3.05;;;2.72;;
56457;SDS011;42360;42.918;12.366;2023-03-01T17:39:58;3.13;;;2.40;;
56457;SDS011;42360;42.918;12.366;2023-03-01T17:42:24;3.55;;;2.70;;
56457;SDS011;42360;42.918;12.366;2023-03-01T17:44:49;3.25;;;2.90;;
56457;SDS011;42360;42.918;12.366;2023-03-01T17:47:15;3.78;;;2.83;;
56457;SDS011;42360;42.918;12.366;2023-03-01T17:49:40;3.95;;;3.58;;
56457;SDS011;42360;42.918;12.366;2023-03-01T17:52:06;4.18;;;3.53;;
56457;SDS011;42360;42.918;12.366;2023-03-01T17:54:31;5.57;;;4.18;;
56457;SDS011;42360;42.918;12.366;2023-03-01T17:56:57;7.22;;;5.18;;
56457;SDS011;42360;42.918;12.366;2023-03-01T17:59:23;8.38;;;6.05;;
56457;SDS011;42360;42.918;12.366;2023-03-01T18:01:49;7.03;;;6.38;;
56457;SDS011;42360;42.918;12.366;2023-03-01T18:04:14;8.23;;;7.53;;
56457;SDS011;42360;42.918;12.366;2023-03-01T18:06:42;6.85;;;6.13;;
56457;SDS011;42360;42.918;12.366;2023-03-01T18:09:08;7.45;;;5.90;;
56457;SDS011;42360;42.918;12.366;2023-03-01T18:11:34;8.07;;;7.28;;
56457;SDS011;42360;42.918;12.366;2023-03-01T18:14:00;6.63;;;5.93;;
56457;SDS011;42360;42.918;12.366;2023-03-01T18:16:25;5.07;;;3.83;;
56457;SDS011;42360;42.918;12.366;2023-03-01T18:18:53;4.95;;;4.05;;
56457;SDS011;42360;42.918;12.366;2023-03-01T18:21:20;7.50;;;5.40;;
56457;SDS011;42360;42.918;12.366;2023-03-01T18:23:46;8.25;;;5.57;;
56457;SDS011;42360;42.918;12.366;2023-03-01T18:26:12;7.28;;;5.35;;
56457;SDS011;42360;42.918;12.366;2023-03-01T18:28:41;6.28;;;4.88;;
56457;SDS011;42360;42.918;12.366;2023-03-01T18:31:11;4.50;;;4.05;;
56457;SDS011;42360;42.918;12.366;2023-03-01T18:33:37;9.18;;;7.30;;
56457;SDS011;42360;42.918;12.366;2023-03-01T18:36:03;6.90;;;5.50;;
56457;SDS011;42360;42.918;12.366;2023-03-01T18:38:30;10.82;;;9.80;;
56457;SDS011;42360;42.918;12.366;2023-03-01T18:40:56;16.10;;;14.80;;
56457;SDS011;42360;42.918;12.366;2023-03-01T18:43:22;15.27;;;13.98;;
56457;SDS011;42360;42.918;12.366;2023-03-01T18:45:54;9.65;;;7.38;;
56457;SDS011;42360;42.918;12.366;2023-03-01T18:48:20;6.50;;;5.38;;
56457;SDS011;42360;42.918;12.366;2023-03-01T18:50:46;5.95;;;4.60;;
56457;SDS011;42360;42.918;12.366;2023-03-01T18:53:11;6.53;;;5.43;;
56457;SDS011;42360;42.918;12.366;2023-03-01T18:55:37;5.28;;;3.80;;
56457;SDS011;42360;42.918;12.366;2023-03-01T18:58:03;4.57;;;3.70;;
56457;SDS011;42360;42.918;12.366;2023-03-01T19:00:30;5.15;;;3.90;;
56457;SDS011;42360;42.918;12.366;2023-03-01T19:02:57;8.48;;;4.90;;
56457;SDS011;42360;42.918;12.366;2023-03-01T19:05:23;8.07;;;6.10;;
56457;SDS011;42360;42.918;12.366;2023-03-01T19:07:49;8.23;;;5.85;;
56457;SDS011;42360;42.918;12.366;2023-03-01T19:10:16;7.70;;;6.05;;
56457;SDS011;42360;42.918;12.366;2023-03-01T19:12:42;6.30;;;5.70;;
56457;SDS011;42360;42.918;12.366;2023-03-01T19:15:07;7.68;;;5.13;;
56457;SDS011;42360;42.918;12.366;2023-03-01T19:17:34;5.63;;;4.80;;
56457;SDS011;42360;42.918;12.366;2023-03-01T19:19:59;5.45;;;4.40;;
56457;SDS011;42360;42.918;12.366;2023-03-01T19:22:25;6.32;;;4.00;;
56457;SDS011;42360;42.918;12.366;2023-03-01T19:24:51;4.07;;;3.10;;
56457;SDS011;42360;42.918;12.366;2023-03-01T19:27:17;4.03;;;2.70;;
56457;SDS011;42360;42.918;12.366;2023-03-01T19:29:42;4.00;;;3.40;;
56457;SDS011;42360;42.918;12.366;2023-03-01T19:32:08;4.30;;;3.50;;
56457;SDS011;42360;42.918;12.366;2023-03-01T19:34:33;10.63;;;9.63;;
56457;SDS011;42360;42.918;12.366;2023-03-01T19:37:01;9.63;;;8.63;;
56457;SDS011;42360;42.918;12.366;2023-03-01T19:39:26;6.25;;;4.65;;
56457;SDS011;42360;42.918;12.366;2023-03-01T19:41:52;3.28;;;2.90;;
56457;SDS011;42360;42.918;12.366;2023-03-01T19:44:18;4.65;;;3.20;;
56457;SDS011;42360;42.918;12.366;2023-03-01T19:46:50;4.75;;;2.72;;
56457;SDS011;42360;42.918;12.366;2023-03-01T19:49:18;4.60;;;4.13;;
56457;SDS011;42360;42.918;12.366;2023-03-01T19:51:44;5.18;;;3.75;;
56457;SDS011;42360;42.918;12.366;2023-03-01T19:54:09;4.35;;;3.83;;
56457;SDS011;42360;42.918;12.366;2023-03-01T19:56:37;4.55;;;3.53;;
56457;SDS011;42360;42.918;12.366;2023-03-01T19:59:02;5.13;;;3.80;;
56457;SDS011;42360;42.918;12.366;2023-03-01T20:01:28;5.75;;;5.13;;
56457;SDS011;42360;42.918;12.366;2023-03-01T20:03:56;6.68;;;3.92;;
56457;SDS011;42360;42.918;12.366;2023-03-01T20:06:21;5.93;;;4.47;;
56457;SDS011;42360;42.918;12.366;2023-03-01T20:08:47;5.97;;;4.57;;
56457;SDS011;42360;42.918;12.366;2023-03-01T20:11:14;7.05;;;4.95;;
56457;SDS011;42360;42.918;12.366;2023-03-01T20:13:40;7.57;;;5.35;;
56457;SDS011;42360;42.918;12.366;2023-03-01T20:16:06;6.32;;;4.68;;
56457;SDS011;42360;42.918;12.366;2023-03-01T20:18:32;6.57;;;4.95;;
56457;SDS011;42360;42.918;12.366;2023-03-01T20:20:58;5.28;;;4.40;;
56457;SDS011;42360;42.918;12.366;2023-03-01T20:23:24;5.05;;;3.83;;
56457;SDS011;42360;42.918;12.366;2023-03-01T20:25:50;3.83;;;3.00;;
56457;SDS011;42360;42.918;12.366;2023-03-01T20:28:16;4.20;;;3.35;;
56457;SDS011;42360;42.918;12.366;2023-03-01T20:30:43;3.72;;;2.83;;
56457;SDS011;42360;42.918;12.366;2023-03-01T20:33:09;4.45;;;3.15;;
56457;SDS011;42360;42.918;12.366;2023-03-01T20:35:34;4.60;;;2.92;;
56457;SDS011;42360;42.918;12.366;2023-03-01T20:38:03;2.90;;;2.55;;
56457;SDS011;42360;42.918;12.366;2023-03-01T20:40:29;4.60;;;3.65;;
56457;SDS011;42360;42.918;12.366;2023-03-01T20:42:56;4.25;;;3.85;;
56457;SDS011;42360;42.918;12.366;2023-03-01T20:45:22;3.83;;;3.10;;
56457;SDS011;42360;42.918;12.366;2023-03-01T20:47:48;5.10;;;4.30;;
56457;SDS011;42360;42.918;12.366;2023-03-01T20:50:15;5.35;;;4.57;;
56457;SDS011;42360;42.918;12.366;2023-03-01T20:52:40;6.05;;;4.80;;
56457;SDS011;42360;42.918;12.366;2023-03-01T20:55:06;5.20;;;4.70;;
56457;SDS011;42360;42.918;12.366;2023-03-01T20:57:32;4.22;;;3.85;;
56457;SDS011;42360;42.918;12.366;2023-03-01T20:59:58;4.50;;;3.20;;
56457;SDS011;42360;42.918;12.366;2023-03-01T21:02:24;3.72;;;3.42;;
56457;SDS011;42360;42.918;12.366;2023-03-01T21:04:49;9.15;;;7.43;;
56457;SDS011;42360;42.918;12.366;2023-03-01T21:07:15;8.18;;;5.45;;
56457;SDS011;42360;42.918;12.366;2023-03-01T21:09:40;9.50;;;6.10;;
56457;SDS011;42360;42.918;12.366;2023-03-01T21:12:09;8.27;;;5.63;;
56457;SDS011;42360;42.918;12.366;2023-03-01T21:14:37;7.45;;;5.38;;
56457;SDS011;42360;42.918;12.366;2023-03-01T21:17:09;7.82;;;6.35;;
56457;SDS011;42360;42.918;12.366;2023-03-01T21:19:36;6.45;;;4.63;;
56457;SDS011;42360;42.918;12.366;2023-03-01T21:22:03;6.78;;;5.43;;
56457;SDS011;42360;42.918;12.366;2023-03-01T21:24:28;8.30;;;5.72;;
56457;SDS011;42360;42.918;12.366;2023-03-01T21:26:55;7.55;;;5.50;;
56457;SDS011;42360;42.918;12.366;2023-03-01T21:29:21;7.22;;;4.82;;
56457;SDS011;42360;42.918;12.366;2023-03-01T21:31:47;5.78;;;4.70;;
56457;SDS011;42360;42.918;12.366;2023-03-01T21:34:12;5.65;;;4.85;;
56457;SDS011;42360;42.918;12.366;2023-03-01T21:36:38;5.78;;;5.15;;
56457;SDS011;42360;42.918;12.366;2023-03-01T21:39:04;5.28;;;4.35;;
56457;SDS011;42360;42.918;12.366;2023-03-01T21:41:31;3.88;;;3.53;;
56457;SDS011;42360;42.918;12.366;2023-03-01T21:43:58;4.50;;;4.10;;
56457;SDS011;42360;42.918;12.366;2023-03-01T21:46:25;4.78;;;3.45;;
56457;SDS011;42360;42.918;12.366;2023-03-01T21:48:52;4.28;;;3.30;;
56457;SDS011;42360;42.918;12.366;2023-03-01T21:51:19;4.50;;;3.17;;
56457;SDS011;42360;42.918;12.366;2023-03-01T21:53:46;3.63;;;3.10;;
56457;SDS011;42360;42.918;12.366;2023-03-01T21:56:15;4.72;;;3.10;;
56457;SDS011;42360;42.918;12.366;2023-03-01T21:58:43;4.38;;;3.38;;
56457;SDS011;42360;42.918;12.366;2023-03-01T22:01:16;4.43;;;3.28;;
56457;SDS011;42360;42.918;12.366;2023-03-01T22:03:44;3.47;;;3.13;;
56457;SDS011;42360;42.918;12.366;2023-03-01T22:06:14;4.38;;;3.67;;
56457;SDS011;42360;42.918;12.366;2023-03-01T22:09:03;3.25;;;2.95;;
56457;SDS011;42360;42.918;12.366;2023-03-01T22:11:30;4.47;;;3.10;;
56457;SDS011;42360;42.918;12.366;2023-03-01T22:13:57;5.60;;;4.18;;
56457;SDS011;42360;42.918;12.366;2023-03-01T22:16:24;11.88;;;7.97;;
56457;SDS011;42360;42.918;12.366;2023-03-01T22:18:51;10.10;;;7.22;;
56457;SDS011;42360;42.918;12.366;2023-03-01T22:21:17;11.55;;;7.53;;
56457;SDS011;42360;42.918;12.366;2023-03-01T22:23:43;12.25;;;8.45;;
56457;SDS011;42360;42.918;12.366;2023-03-01T22:26:19;12.85;;;8.25;;
56457;SDS011;42360;42.918;12.366;2023-03-01T22:28:48;9.98;;;7.25;;
56457;SDS011;42360;42.918;12.366;2023-03-01T22:31:14;9.05;;;6.30;;
56457;SDS011;42360;42.918;12.366;2023-03-01T22:33:39;4.82;;;4.20;;
56457;SDS011;42360;42.918;12.366;2023-03-01T22:36:05;7.22;;;3.85;;
56457;SDS011;42360;42.918;12.366;2023-03-01T22:38:31;5.07;;;3.95;;
56457;SDS011;42360;42.918;12.366;2023-03-01T22:40:57;4.53;;;3.58;;
56457;SDS011;42360;42.918;12.366;2023-03-01T22:43:23;4.10;;;3.70;;
56457;SDS011;42360;42.918;12.366;2023-03-01T22:45:49;4.15;;;3.75;;
56457;SDS011;42360;42.918;12.366;2023-03-01T22:48:14;3.78;;;3.25;;
56457;SDS011;42360;42.918;12.366;2023-03-01T22:50:43;4.00;;;3.60;;
56457;SDS011;42360;42.918;12.366;2023-03-01T22:53:09;3.88;;;3.28;;
56457;SDS011;42360;42.918;12.366;2023-03-01T22:55:36;3.40;;;3.10;;
56457;SDS011;42360;42.918;12.366;2023-03-01T22:58:02;5.55;;;4.22;;
56457;SDS011;42360;42.918;12.366;2023-03-01T23:00:27;6.00;;;3.50;;
56457;SDS011;42360;42.918;12.366;2023-03-01T23:02:53;3.50;;;3.22;;
56457;SDS011;42360;42.918;12.366;2023-03-01T23:05:19;4.70;;;3.42;;
56457;SDS011;42360;42.918;12.366;2023-03-01T23:07:44;4.97;;;3.38;;
56457;SDS011;42360;42.918;12.366;2023-03-01T23:10:11;5.30;;;3.15;;
56457;SDS011;42360;42.918;12.366;2023-03-01T23:12:37;4.22;;;3.03;;
56457;SDS011;42360;42.918;12.366;2023-03-01T23:15:03;2.97;;;2.67;;
56457;SDS011;42360;42.918;12.366;2023-03-01T23:17:29;3.17;;;2.88;;
56457;SDS011;42360;42.918;12.366;2023-03-01T23:19:55;4.80;;;3.28;;
56457;SDS011;42360;42.918;12.366;2023-03-01T23:22:20;6.47;;;4.47;;
56457;SDS011;42360;42.918;12.366;2023-03-01T23:24:46;5.40;;;4.47;;
56457;SDS011;42360;42.918;12.366;2023-03-01T23:27:12;5.78;;;4.63;;
56457;SDS011;42360;42.918;12.366;2023-03-01T23:29:41;5.03;;;4.22;;
56457;SDS011;42360;42.918;12.366;2023-03-01T23:32:07;4.65;;;3.83;;
56457;SDS011;42360;42.918;12.366;2023-03-01T23:34:33;4.75;;;3.38;;
56457;SDS011;42360;42.918;12.366;2023-03-01T23:36:59;3.67;;;3.28;;
56457;SDS011;42360;42.918;12.366;2023-03-01T23:39:25;7.07;;;2.88;;
56457;SDS011;42360;42.918;12.366;2023-03-01T23:41:51;5.70;;;3.65;;
56457;SDS011;42360;42.918;12.366;2023-03-01T23:44:18;2.85;;;2.58;;
56457;SDS011;42360;42.918;12.366;2023-03-01T23:46:44;3.85;;;3.08;;
56457;SDS011;42360;42.918;12.366;2023-03-01T23:49:12;4.05;;;3.05;;
56457;SDS011;42360;42.918;12.366;2023-03-01T23:51:42;7.13;;;4.07;;
56457;SDS011;42360;42.918;12.366;2023-03-01T23:54:15;9.35;;;4.80;;
56457;SDS011;42360;42.918;12.366;2023-03-01T23:56:42;12.38;;;5.53;;
56457;SDS011;42360;42.918;12.366;2023-03-01T23:59:10;12.32;;;6.65;;
